Time;durP1;ratioP1;P1;durP2;ratioP2;P2;SDS_P1;SDS_P2;PMS_P1;PMS_P2;Temp;Humidity;BMP_temperature;BMP_pressure;BME280_temperature;BME280_humidity;BME280_pressure;Samples;Min_cycle;Max_cycle;Signal;HPM_P1;HPM_P2
2023/06/22 00:02:07;;;;;;;8.40;5.10;;;;;;;;;;5058447;28;20449;-80
2023/06/22 00:04:34;;;;;;;10.40;5.07;;;;;;;;;;5058252;28;20453;-79
2023/06/22 00:07:01;;;;;;;10.00;5.10;;;;;;;;;;5059672;28;20866;-79
2023/06/22 00:09:28;;;;;;;12.47;5.53;;;;;;;;;;5059441;28;20477;-79
2023/06/22 00:11:55;;;;;;;8.87;5.20;;;;;;;;;;5059057;28;20457;-79
2023/06/22 00:14:22;;;;;;;11.17;6.07;;;;;;;;;;5058917;28;20496;-79
2023/06/22 00:16:57;;;;;;;12.53;6.17;;;;;;;;;;5058987;28;20535;-79
2023/06/22 00:19:24;;;;;;;10.97;5.90;;;;;;;;;;5059734;28;20473;-79
2023/06/22 00:21:52;;;;;;;10.37;5.27;;;;;;;;;;5059259;28;20448;-79
2023/06/22 00:24:20;;;;;;;12.60;5.37;;;;;;;;;;5058670;28;20452;-79
2023/06/22 00:26:47;;;;;;;12.90;5.30;;;;;;;;;;5057959;28;20456;-79
2023/06/22 00:29:14;;;;;;;9.27;5.53;;;;;;;;;;5057875;28;20456;-79
2023/06/22 00:31:41;;;;;;;15.93;6.60;;;;;;;;;;5057654;28;20965;-79
2023/06/22 00:34:10;;;;;;;9.47;5.90;;;;;;;;;;5057975;28;20493;-79
2023/06/22 00:36:37;;;;;;;9.10;6.33;;;;;;;;;;5057950;28;20969;-79
2023/06/22 00:39:05;;;;;;;15.20;6.43;;;;;;;;;;5057880;28;20467;-79
2023/06/22 00:41:32;;;;;;;13.40;5.87;;;;;;;;;;5057563;28;20480;-79
2023/06/22 00:43:59;;;;;;;9.13;5.67;;;;;;;;;;5056823;28;20457;-79
2023/06/22 00:46:27;;;;;;;12.23;7.03;;;;;;;;;;5056521;28;20488;-79
2023/06/22 00:48:57;;;;;;;11.67;6.50;;;;;;;;;;5056109;28;20460;-78
2023/06/22 00:51:26;;;;;;;10.10;6.47;;;;;;;;;;5054785;28;20479;-78
2023/06/22 00:53:53;;;;;;;15.20;7.67;;;;;;;;;;5056048;28;20965;-78
2023/06/22 00:56:24;;;;;;;13.83;7.50;;;;;;;;;;5055389;28;20484;-79
2023/06/22 00:58:53;;;;;;;13.87;6.87;;;;;;;;;;5055756;28;20556;-78
2023/06/22 01:01:23;;;;;;;12.53;5.57;;;;;;;;;;5055354;28;20509;-78
2023/06/22 01:03:50;;;;;;;10.60;5.23;;;;;;;;;;5055611;28;20502;-78
2023/06/22 01:06:20;;;;;;;10.10;4.80;;;;;;;;;;5056356;28;20496;-79
2023/06/22 01:08:53;;;;;;;9.97;5.10;;;;;;;;;;5057431;28;20543;-79
2023/06/22 01:11:24;;;;;;;9.93;4.90;;;;;;;;;;5056418;28;20477;-78
2023/06/22 01:13:53;;;;;;;10.93;4.67;;;;;;;;;;5055708;28;20489;-78
2023/06/22 01:16:22;;;;;;;10.57;4.40;;;;;;;;;;5055692;28;20468;-78
2023/06/22 01:18:50;;;;;;;10.90;5.40;;;;;;;;;;5054409;28;20452;-77
2023/06/22 01:21:19;;;;;;;13.17;5.07;;;;;;;;;;5055614;28;20477;-79
2023/06/22 01:23:53;;;;;;;8.90;5.20;;;;;;;;;;5055402;28;20451;-78
2023/06/22 01:26:22;;;;;;;6.07;4.20;;;;;;;;;;5055217;28;20457;-79
2023/06/22 01:28:51;;;;;;;8.23;4.93;;;;;;;;;;5055485;28;20487;-79
2023/06/22 01:31:20;;;;;;;4.80;4.30;;;;;;;;;;5056235;28;20472;-79
2023/06/22 01:33:50;;;;;;;8.83;4.83;;;;;;;;;;5056228;28;20492;-79
2023/06/22 01:36:18;;;;;;;7.77;5.10;;;;;;;;;;5054532;28;20457;-78
2023/06/22 01:38:46;;;;;;;12.53;5.40;;;;;;;;;;5054850;28;20456;-78
2023/06/22 01:41:13;;;;;;;9.43;4.10;;;;;;;;;;5055534;28;20475;-79
2023/06/22 01:43:41;;;;;;;8.53;4.77;;;;;;;;;;5055189;28;20860;-78
2023/06/22 01:46:10;;;;;;;8.10;4.90;;;;;;;;;;5054568;28;20469;-79
2023/06/22 01:48:37;;;;;;;8.60;4.97;;;;;;;;;;5054554;28;20460;-78
2023/06/22 01:51:04;;;;;;;14.20;5.30;;;;;;;;;;5054005;28;20465;-78
2023/06/22 01:53:31;;;;;;;8.73;4.50;;;;;;;;;;5054550;28;20457;-78
2023/06/22 01:55:59;;;;;;;7.13;4.77;;;;;;;;;;5054194;28;20980;-78
2023/06/22 01:58:28;;;;;;;11.27;4.37;;;;;;;;;;5053925;28;21067;-78
2023/06/22 02:00:59;;;;;;;10.07;5.50;;;;;;;;;;5054038;28;20496;-78
2023/06/22 02:03:31;;;;;;;5.30;3.90;;;;;;;;;;5053829;28;20829;-78
2023/06/22 02:06:03;;;;;;;5.20;4.33;;;;;;;;;;5053882;28;20463;-79
2023/06/22 02:08:32;;;;;;;7.53;4.70;;;;;;;;;;5053450;28;20464;-78
2023/06/22 02:10:59;;;;;;;7.40;5.20;;;;;;;;;;5053513;28;20477;-79
2023/06/22 02:13:26;;;;;;;6.80;5.03;;;;;;;;;;5054812;28;20965;-79
2023/06/22 02:15:54;;;;;;;8.50;5.13;;;;;;;;;;5054705;28;20887;-79
2023/06/22 02:18:21;;;;;;;12.80;4.53;;;;;;;;;;5054464;28;20460;-79
2023/06/22 02:20:49;;;;;;;8.83;4.90;;;;;;;;;;5054734;28;20507;-78
2023/06/22 02:23:17;;;;;;;8.03;5.87;;;;;;;;;;5054604;28;20460;-79
2023/06/22 02:25:44;;;;;;;6.63;4.60;;;;;;;;;;5054446;28;20449;-79
2023/06/22 02:28:11;;;;;;;8.10;4.70;;;;;;;;;;5054278;28;20945;-79
2023/06/22 02:30:38;;;;;;;7.80;4.47;;;;;;;;;;5053943;28;20487;-78
2023/06/22 02:33:05;;;;;;;9.40;5.40;;;;;;;;;;5055046;28;20452;-79
2023/06/22 02:35:35;;;;;;;10.20;5.40;;;;;;;;;;5054871;28;20488;-78
2023/06/22 02:38:05;;;;;;;8.50;5.20;;;;;;;;;;5054420;28;20556;-78
2023/06/22 02:40:32;;;;;;;14.17;5.20;;;;;;;;;;5054397;28;21037;-79
2023/06/22 02:43:01;;;;;;;6.83;6.00;;;;;;;;;;5053783;28;20448;-78
2023/06/22 02:45:29;;;;;;;8.40;5.10;;;;;;;;;;5053591;28;20987;-78
2023/06/22 02:47:56;;;;;;;7.83;5.00;;;;;;;;;;5053526;28;20480;-78
2023/06/22 02:50:25;;;;;;;12.70;4.70;;;;;;;;;;5052834;28;20503;-78
2023/06/22 02:52:52;;;;;;;9.37;5.17;;;;;;;;;;5054038;28;20941;-78
2023/06/22 02:55:20;;;;;;;16.53;5.53;;;;;;;;;;5053792;28;20519;-79
2023/06/22 02:57:47;;;;;;;13.57;6.20;;;;;;;;;;5053657;28;20452;-79
2023/06/22 03:00:17;;;;;;;9.13;5.20;;;;;;;;;;5053990;28;20499;-79
2023/06/22 03:02:45;;;;;;;10.70;5.47;;;;;;;;;;5054241;28;20518;-79
2023/06/22 03:05:13;;;;;;;8.53;5.10;;;;;;;;;;5054093;28;20449;-79
2023/06/22 03:07:42;;;;;;;5.20;4.63;;;;;;;;;;5053772;28;20507;-79
2023/06/22 03:10:10;;;;;;;9.10;5.00;;;;;;;;;;5053750;28;20475;-79
2023/06/22 03:12:38;;;;;;;7.70;5.23;;;;;;;;;;5054602;28;20449;-78
2023/06/22 03:15:07;;;;;;;10.10;4.83;;;;;;;;;;5054621;28;20493;-79
2023/06/22 03:17:34;;;;;;;13.70;5.50;;;;;;;;;;5058762;28;20484;-79
2023/06/22 03:20:06;;;;;;;10.00;5.80;;;;;;;;;;5059101;28;20555;-79
2023/06/22 03:22:34;;;;;;;11.20;5.83;;;;;;;;;;5060274;28;20543;-79
2023/06/22 03:25:01;;;;;;;7.77;4.77;;;;;;;;;;5058533;28;20934;-79
2023/06/22 03:27:28;;;;;;;9.93;4.73;;;;;;;;;;5058697;28;20452;-79
2023/06/22 03:29:58;;;;;;;10.23;6.10;;;;;;;;;;5059010;28;20530;-78
2023/06/22 03:32:27;;;;;;;12.23;6.00;;;;;;;;;;5057811;28;20504;-79
2023/06/22 03:34:58;;;;;;;13.27;6.37;;;;;;;;;;5058114;28;20494;-79
2023/06/22 03:37:25;;;;;;;14.13;5.83;;;;;;;;;;5057226;28;20464;-79
2023/06/22 03:39:52;;;;;;;17.63;7.10;;;;;;;;;;5056312;28;20563;-78
2023/06/22 03:42:20;;;;;;;11.00;5.90;;;;;;;;;;5057816;28;20472;-79
2023/06/22 03:44:47;;;;;;;9.57;6.73;;;;;;;;;;5058347;28;20456;-78
2023/06/22 03:47:15;;;;;;;8.00;5.83;;;;;;;;;;5056613;28;20456;-79
2023/06/22 03:49:42;;;;;;;12.40;6.70;;;;;;;;;;5057475;28;20472;-79
2023/06/22 03:52:10;;;;;;;12.37;6.33;;;;;;;;;;5056980;28;20456;-79
2023/06/22 03:54:37;;;;;;;10.40;6.27;;;;;;;;;;5057157;28;20492;-78
2023/06/22 03:57:05;;;;;;;8.10;5.27;;;;;;;;;;5055821;28;20962;-79
2023/06/22 03:59:32;;;;;;;13.87;6.77;;;;;;;;;;5055603;28;20472;-79
2023/06/22 04:01:59;;;;;;;13.07;6.00;;;;;;;;;;5055881;28;20893;-78
2023/06/22 04:04:28;;;;;;;14.40;6.87;;;;;;;;;;5055782;28;20460;-78
2023/06/22 04:06:55;;;;;;;9.90;6.47;;;;;;;;;;5056103;28;20492;-78
2023/06/22 04:09:22;;;;;;;16.17;7.10;;;;;;;;;;5055589;28;20453;-78
2023/06/22 04:11:49;;;;;;;10.87;5.87;;;;;;;;;;5055943;28;20872;-78
2023/06/22 04:14:16;;;;;;;8.40;5.17;;;;;;;;;;5055995;28;20437;-79
2023/06/22 04:16:43;;;;;;;10.53;6.67;;;;;;;;;;5056229;28;20456;-78
2023/06/22 04:19:16;;;;;;;9.10;5.17;;;;;;;;;;5055292;28;20844;-79
2023/06/22 04:21:45;;;;;;;7.10;5.20;;;;;;;;;;5055072;28;20489;-78
2023/06/22 04:24:12;;;;;;;15.00;5.60;;;;;;;;;;5054730;28;21011;-77
2023/06/22 04:26:41;;;;;;;10.47;6.50;;;;;;;;;;5053355;28;20464;-78
2023/06/22 04:29:09;;;;;;;11.47;6.70;;;;;;;;;;5054650;28;20534;-79
2023/06/22 04:31:36;;;;;;;16.90;6.90;;;;;;;;;;5054826;28;20445;-78
2023/06/22 04:34:06;;;;;;;10.67;5.87;;;;;;;;;;5054863;28;20574;-79
2023/06/22 04:36:37;;;;;;;9.63;5.47;;;;;;;;;;5054691;28;20543;-78
2023/06/22 04:39:06;;;;;;;11.10;5.90;;;;;;;;;;5054274;28;20460;-79
2023/06/22 04:41:41;;;;;;;8.70;5.37;;;;;;;;;;5054835;28;21006;-78
2023/06/22 04:44:09;;;;;;;7.27;5.30;;;;;;;;;;5054140;28;20464;-78
2023/06/22 04:46:39;;;;;;;9.07;4.97;;;;;;;;;;5054795;28;20456;-78
2023/06/22 04:49:09;;;;;;;9.27;4.43;;;;;;;;;;5054134;28;20456;-79
2023/06/22 04:51:37;;;;;;;5.70;4.83;;;;;;;;;;5053905;28;20526;-79
2023/06/22 04:54:06;;;;;;;11.10;6.00;;;;;;;;;;5054132;28;21028;-79
2023/06/22 04:56:33;;;;;;;14.77;5.07;;;;;;;;;;5054030;28;20488;-78
2023/06/22 04:59:00;;;;;;;5.70;5.00;;;;;;;;;;5054199;28;20484;-78
2023/06/22 05:01:28;;;;;;;10.47;5.00;;;;;;;;;;5053878;28;20492;-78
2023/06/22 05:03:56;;;;;;;8.57;4.60;;;;;;;;;;5054186;28;20437;-78
2023/06/22 05:06:25;;;;;;;7.87;4.37;;;;;;;;;;5054033;28;20909;-79
2023/06/22 05:08:52;;;;;;;8.90;4.37;;;;;;;;;;5054017;28;20937;-77
2023/06/22 05:11:21;;;;;;;7.17;4.17;;;;;;;;;;5053675;28;20468;-78
2023/06/22 05:13:48;;;;;;;6.27;4.43;;;;;;;;;;5053841;28;20976;-78
2023/06/22 05:16:15;;;;;;;5.50;4.13;;;;;;;;;;5053432;28;20493;-78
2023/06/22 05:18:43;;;;;;;7.63;4.63;;;;;;;;;;5053334;28;20457;-77
2023/06/22 05:21:10;;;;;;;5.33;4.30;;;;;;;;;;5050518;28;20468;-77
2023/06/22 05:23:37;;;;;;;6.43;3.77;;;;;;;;;;5052202;28;20459;-77
2023/06/22 05:26:04;;;;;;;8.87;4.93;;;;;;;;;;5052365;28;20453;-77
2023/06/22 05:28:34;;;;;;;13.37;4.60;;;;;;;;;;5051980;28;20463;-77
2023/06/22 05:31:01;;;;;;;10.50;5.37;;;;;;;;;;5051830;28;20989;-77
2023/06/22 05:33:28;;;;;;;9.90;3.90;;;;;;;;;;5052219;28;20869;-77
2023/06/22 05:35:55;;;;;;;5.60;3.70;;;;;;;;;;5052091;28;21016;-77
2023/06/22 05:38:23;;;;;;;8.53;5.10;;;;;;;;;;5051336;28;20459;-77
2023/06/22 05:40:50;;;;;;;10.33;4.63;;;;;;;;;;5052206;28;20476;-78
2023/06/22 05:43:17;;;;;;;11.10;4.90;;;;;;;;;;5053010;28;20460;-78
2023/06/22 05:45:46;;;;;;;4.83;4.20;;;;;;;;;;5052579;28;20572;-78
2023/06/22 05:48:13;;;;;;;9.70;4.50;;;;;;;;;;5053946;28;20456;-78
2023/06/22 05:50:41;;;;;;;6.23;4.23;;;;;;;;;;5053893;28;20491;-78
2023/06/22 05:53:08;;;;;;;9.10;4.73;;;;;;;;;;5054066;28;20456;-78
2023/06/22 05:55:35;;;;;;;5.27;3.63;;;;;;;;;;5054248;28;20492;-78
2023/06/22 05:58:03;;;;;;;6.43;3.90;;;;;;;;;;5054510;28;20510;-78
2023/06/22 06:00:30;;;;;;;7.30;4.37;;;;;;;;;;5053935;28;20472;-79
2023/06/22 06:03:03;;;;;;;10.90;4.70;;;;;;;;;;5053951;28;20646;-78
2023/06/22 06:05:30;;;;;;;8.30;3.97;;;;;;;;;;5053799;28;20448;-78
2023/06/22 06:07:57;;;;;;;6.20;4.03;;;;;;;;;;5053707;28;20598;-78
2023/06/22 06:10:25;;;;;;;6.57;4.03;;;;;;;;;;5053101;28;20996;-77
2023/06/22 06:12:52;;;;;;;16.23;4.70;;;;;;;;;;5052873;28;20454;-77
2023/06/22 06:15:19;;;;;;;6.77;4.07;;;;;;;;;;5053782;28;20503;-77
2023/06/22 06:17:47;;;;;;;6.53;4.90;;;;;;;;;;5052883;28;20893;-77
2023/06/22 06:20:16;;;;;;;7.40;4.07;;;;;;;;;;5052775;28;20999;-77
2023/06/22 06:22:43;;;;;;;7.60;4.97;;;;;;;;;;5052866;28;20459;-77
2023/06/22 06:25:15;;;;;;;13.40;5.80;;;;;;;;;;5052951;28;20482;-77
2023/06/22 06:27:42;;;;;;;14.77;5.80;;;;;;;;;;5053452;28;20893;-76
2023/06/22 06:30:10;;;;;;;8.10;5.00;;;;;;;;;;5053003;28;20474;-76
2023/06/22 06:32:37;;;;;;;9.30;6.00;;;;;;;;;;5052765;28;20933;-76
2023/06/22 06:35:05;;;;;;;8.77;4.90;;;;;;;;;;5052717;28;21002;-76
2023/06/22 06:37:34;;;;;;;7.00;4.97;;;;;;;;;;5052567;28;20993;-76
2023/06/22 06:40:02;;;;;;;7.37;4.40;;;;;;;;;;5052680;28;20476;-76
2023/06/22 06:42:29;;;;;;;7.90;4.67;;;;;;;;;;5053230;28;20450;-76
2023/06/22 06:44:56;;;;;;;7.67;4.47;;;;;;;;;;5052226;28;20470;-76
2023/06/22 06:47:23;;;;;;;7.87;5.20;;;;;;;;;;5052675;28;20952;-76
2023/06/22 06:49:50;;;;;;;8.33;4.07;;;;;;;;;;5053397;28;20835;-76
2023/06/22 06:52:17;;;;;;;10.63;3.90;;;;;;;;;;5056820;28;20432;-76
2023/06/22 06:54:46;;;;;;;11.03;4.80;;;;;;;;;;5056391;28;20455;-76
2023/06/22 06:57:14;;;;;;;10.30;4.60;;;;;;;;;;5056722;28;20865;-77
2023/06/22 06:59:42;;;;;;;4.60;4.20;;;;;;;;;;5056556;28;20537;-77
2023/06/22 07:02:09;;;;;;;6.97;4.77;;;;;;;;;;5056541;28;20448;-76
2023/06/22 07:04:36;;;;;;;8.67;4.73;;;;;;;;;;5056455;28;20456;-76
2023/06/22 07:07:04;;;;;;;9.63;3.97;;;;;;;;;;5056426;28;20451;-76
2023/06/22 07:09:31;;;;;;;9.47;4.50;;;;;;;;;;5056270;28;21027;-76
2023/06/22 07:11:59;;;;;;;7.13;4.77;;;;;;;;;;5056002;28;20448;-76
2023/06/22 07:14:26;;;;;;;9.17;4.90;;;;;;;;;;5056405;28;20452;-76
2023/06/22 07:16:53;;;;;;;14.83;7.33;;;;;;;;;;5056246;28;20586;-75
2023/06/22 07:19:26;;;;;;;8.30;4.50;;;;;;;;;;5056355;28;20448;-75
2023/06/22 07:21:53;;;;;;;7.97;4.40;;;;;;;;;;5056257;28;20902;-76
2023/06/22 07:24:21;;;;;;;6.13;5.03;;;;;;;;;;5056062;28;20868;-76
2023/06/22 07:26:49;;;;;;;6.93;4.03;;;;;;;;;;5055945;28;20452;-76
2023/06/22 07:29:18;;;;;;;5.37;4.87;;;;;;;;;;5055811;28;20456;-76
2023/06/22 07:31:46;;;;;;;8.37;4.63;;;;;;;;;;5056045;28;20452;-77
2023/06/22 07:34:13;;;;;;;11.80;4.43;;;;;;;;;;5055498;28;20455;-77
2023/06/22 07:36:40;;;;;;;9.20;4.80;;;;;;;;;;5056009;28;20506;-76
2023/06/22 07:39:07;;;;;;;10.30;4.53;;;;;;;;;;5055790;28;20452;-76
2023/06/22 07:41:34;;;;;;;7.40;4.30;;;;;;;;;;5055909;28;20455;-76
2023/06/22 07:44:01;;;;;;;12.43;5.10;;;;;;;;;;5055628;28;21012;-76
2023/06/22 07:46:30;;;;;;;9.53;4.40;;;;;;;;;;5055857;28;20432;-76
2023/06/22 07:48:58;;;;;;;7.47;4.30;;;;;;;;;;5055875;28;20490;-75
2023/06/22 07:51:25;;;;;;;10.67;5.57;;;;;;;;;;5055245;28;20475;-76
2023/06/22 07:53:52;;;;;;;8.70;4.70;;;;;;;;;;5055679;28;20463;-76
2023/06/22 07:56:20;;;;;;;8.07;5.30;;;;;;;;;;5055409;28;20490;-76
2023/06/22 07:58:47;;;;;;;11.07;4.77;;;;;;;;;;5055637;28;20506;-76
2023/06/22 08:01:15;;;;;;;7.17;5.23;;;;;;;;;;5054555;28;20472;-76
2023/06/22 08:03:43;;;;;;;6.30;4.67;;;;;;;;;;5055120;28;20456;-76
2023/06/22 08:06:10;;;;;;;7.73;3.70;;;;;;;;;;5055418;28;20467;-76
2023/06/22 08:08:38;;;;;;;6.83;4.70;;;;;;;;;;5055118;28;20456;-76
2023/06/22 08:11:05;;;;;;;9.20;4.97;;;;;;;;;;5054977;28;20474;-76
2023/06/22 08:13:32;;;;;;;9.87;4.30;;;;;;;;;;5055463;28;20913;-76
2023/06/22 08:15:59;;;;;;;10.57;3.73;;;;;;;;;;5055219;28;20491;-76
2023/06/22 08:18:26;;;;;;;8.23;4.43;;;;;;;;;;5054958;28;20464;-76
2023/06/22 08:20:55;;;;;;;8.20;4.87;;;;;;;;;;5054800;28;20482;-76
2023/06/22 08:23:22;;;;;;;15.67;5.10;;;;;;;;;;5054938;28;20452;-76
2023/06/22 08:25:50;;;;;;;7.23;4.70;;;;;;;;;;5054876;28;20448;-76
2023/06/22 08:28:17;;;;;;;17.57;4.87;;;;;;;;;;5055011;28;20487;-76
2023/06/22 08:30:44;;;;;;;7.70;4.27;;;;;;;;;;5054614;28;20882;-75
2023/06/22 08:33:12;;;;;;;6.50;4.40;;;;;;;;;;5054725;28;20456;-76
2023/06/22 08:35:39;;;;;;;7.20;4.77;;;;;;;;;;5054376;28;20556;-76
2023/06/22 08:38:08;;;;;;;5.00;4.00;;;;;;;;;;5054574;28;20464;-76
2023/06/22 08:40:35;;;;;;;11.40;5.27;;;;;;;;;;5054428;28;20483;-75
2023/06/22 08:43:03;;;;;;;9.23;4.60;;;;;;;;;;5054824;28;20448;-76
2023/06/22 08:45:30;;;;;;;8.30;5.07;;;;;;;;;;5054266;28;20463;-76
2023/06/22 08:47:57;;;;;;;7.57;4.60;;;;;;;;;;5054349;28;20448;-76
2023/06/22 08:50:25;;;;;;;5.63;3.83;;;;;;;;;;5054141;28;20481;-76
2023/06/22 08:52:52;;;;;;;5.83;3.60;;;;;;;;;;5054398;28;20453;-76
2023/06/22 08:55:21;;;;;;;5.50;4.53;;;;;;;;;;5054367;28;20459;-75
2023/06/22 08:57:48;;;;;;;8.30;4.70;;;;;;;;;;5054072;28;20496;-76
2023/06/22 09:00:17;;;;;;;7.43;3.70;;;;;;;;;;5054411;28;20937;-76
2023/06/22 09:02:44;;;;;;;8.97;4.60;;;;;;;;;;5054286;28;20444;-76
2023/06/22 09:05:11;;;;;;;8.37;3.80;;;;;;;;;;5054421;28;20859;-76
2023/06/22 09:07:39;;;;;;;7.20;4.10;;;;;;;;;;5054085;28;20539;-78
2023/06/22 09:10:06;;;;;;;7.83;3.93;;;;;;;;;;5054052;28;20495;-78
2023/06/22 09:12:37;;;;;;;8.53;4.07;;;;;;;;;;5053426;28;20459;-77
2023/06/22 09:15:06;;;;;;;9.90;4.43;;;;;;;;;;5053803;28;20452;-77
2023/06/22 09:17:34;;;;;;;8.83;3.43;;;;;;;;;;5054155;28;20606;-77
2023/06/22 09:20:05;;;;;;;6.73;4.20;;;;;;;;;;5054027;28;21033;-78
2023/06/22 09:22:32;;;;;;;9.63;5.33;;;;;;;;;;5053678;28;20456;-76
2023/06/22 09:25:00;;;;;;;8.10;4.67;;;;;;;;;;5053809;28;20830;-76
2023/06/22 09:27:27;;;;;;;8.50;4.00;;;;;;;;;;5053502;28;20475;-76
2023/06/22 09:29:58;;;;;;;7.47;4.47;;;;;;;;;;5053331;28;20578;-76
2023/06/22 09:32:25;;;;;;;9.83;4.07;;;;;;;;;;5053450;28;20456;-76
2023/06/22 09:34:52;;;;;;;8.03;5.17;;;;;;;;;;5053761;28;20861;-75
2023/06/22 09:37:20;;;;;;;10.70;4.03;;;;;;;;;;5053239;28;20484;-76
2023/06/22 09:39:47;;;;;;;9.70;4.30;;;;;;;;;;5053285;28;21015;-76
2023/06/22 09:42:14;;;;;;;9.80;4.97;;;;;;;;;;5053405;28;20464;-75
2023/06/22 09:44:41;;;;;;;22.43;6.57;;;;;;;;;;5050113;28;20460;-76
2023/06/22 09:47:10;;;;;;;9.70;4.77;;;;;;;;;;5051950;28;20444;-76
2023/06/22 09:49:37;;;;;;;10.47;5.03;;;;;;;;;;5052142;28;20479;-76
2023/06/22 09:52:04;;;;;;;7.03;3.80;;;;;;;;;;5052385;28;20436;-76
2023/06/22 09:54:31;;;;;;;5.20;4.70;;;;;;;;;;5052705;28;20479;-76
2023/06/22 09:56:58;;;;;;;10.73;5.27;;;;;;;;;;5052736;28;20486;-76
2023/06/22 09:59:25;;;;;;;8.90;4.10;;;;;;;;;;5052989;28;20452;-76
2023/06/22 10:01:52;;;;;;;12.07;5.10;;;;;;;;;;5052876;28;20444;-76
2023/06/22 10:04:21;;;;;;;7.40;4.40;;;;;;;;;;5053088;28;20823;-76
2023/06/22 10:06:48;;;;;;;8.40;4.77;;;;;;;;;;5053116;28;20452;-77
2023/06/22 10:09:15;;;;;;;16.27;4.90;;;;;;;;;;5052736;28;20459;-76
2023/06/22 10:11:43;;;;;;;10.47;5.00;;;;;;;;;;5053313;28;20941;-76
2023/06/22 10:14:10;;;;;;;10.40;5.30;;;;;;;;;;5052630;28;20464;-76
2023/06/22 10:16:38;;;;;;;10.20;4.57;;;;;;;;;;5052957;28;20996;-77
2023/06/22 10:19:05;;;;;;;8.97;4.20;;;;;;;;;;5052591;28;20444;-76
2023/06/22 10:21:34;;;;;;;7.63;4.60;;;;;;;;;;5052945;28;20475;-76
2023/06/22 10:24:05;;;;;;;8.30;4.60;;;;;;;;;;5052786;28;20464;-77
2023/06/22 10:26:32;;;;;;;8.67;4.30;;;;;;;;;;5052816;28;20471;-76
2023/06/22 10:29:00;;;;;;;14.97;6.20;;;;;;;;;;5052544;28;20460;-76
2023/06/22 10:31:27;;;;;;;12.03;5.53;;;;;;;;;;5053058;28;20545;-79
2023/06/22 10:33:54;;;;;;;7.97;4.60;;;;;;;;;;5052562;28;20917;-78
2023/06/22 10:36:22;;;;;;;11.03;4.47;;;;;;;;;;5052382;28;20459;-77
2023/06/22 10:38:52;;;;;;;9.60;5.27;;;;;;;;;;5052319;28;20460;-77
2023/06/22 10:41:19;;;;;;;11.53;4.90;;;;;;;;;;5052483;28;20995;-78
2023/06/22 10:43:46;;;;;;;9.97;4.37;;;;;;;;;;5052924;28;20475;-78
2023/06/22 10:46:14;;;;;;;8.03;4.80;;;;;;;;;;5055940;28;20444;-78
2023/06/22 10:48:41;;;;;;;10.40;5.10;;;;;;;;;;5055957;28;20452;-78
2023/06/22 10:51:08;;;;;;;10.47;4.90;;;;;;;;;;5055457;28;20495;-79
2023/06/22 10:53:35;;;;;;;12.90;5.13;;;;;;;;;;5054177;28;20457;-78
2023/06/22 10:56:03;;;;;;;10.27;6.87;;;;;;;;;;5053579;28;20806;-78
2023/06/22 10:58:31;;;;;;;8.40;5.73;;;;;;;;;;5052802;28;21084;-78
2023/06/22 11:00:58;;;;;;;8.90;6.30;;;;;;;;;;5052916;28;20472;-78
2023/06/22 11:03:26;;;;;;;10.07;5.60;;;;;;;;;;5052555;28;20460;-78
2023/06/22 11:05:53;;;;;;;10.00;5.60;;;;;;;;;;5054331;28;20466;-79
2023/06/22 11:08:20;;;;;;;7.17;5.20;;;;;;;;;;5052968;28;20444;-78
2023/06/22 11:10:47;;;;;;;6.97;4.67;;;;;;;;;;5053842;28;20456;-79
2023/06/22 11:13:15;;;;;;;13.07;5.43;;;;;;;;;;5054289;28;20462;-78
2023/06/22 11:15:42;;;;;;;8.50;5.00;;;;;;;;;;5054219;28;20455;-79
2023/06/22 11:18:09;;;;;;;18.70;6.80;;;;;;;;;;5053846;28;20487;-79
2023/06/22 11:20:38;;;;;;;12.07;6.60;;;;;;;;;;5053295;28;20949;-78
2023/06/22 11:23:06;;;;;;;10.30;5.20;;;;;;;;;;5053070;28;20505;-78
2023/06/22 11:25:34;;;;;;;9.13;5.77;;;;;;;;;;5052999;28;20543;-79
2023/06/22 11:28:02;;;;;;;10.37;5.37;;;;;;;;;;5053117;28;20448;-78
2023/06/22 11:30:30;;;;;;;8.97;5.03;;;;;;;;;;5053181;28;20477;-78
2023/06/22 11:32:58;;;;;;;12.20;6.23;;;;;;;;;;5053802;28;20459;-78
2023/06/22 11:35:25;;;;;;;11.30;6.70;;;;;;;;;;5053123;28;20456;-78
2023/06/22 11:37:53;;;;;;;10.17;5.37;;;;;;;;;;5056337;28;20514;-78
2023/06/22 11:40:20;;;;;;;9.40;5.97;;;;;;;;;;5057268;28;20475;-78
2023/06/22 11:42:47;;;;;;;12.80;6.13;;;;;;;;;;5058839;28;20447;-79
2023/06/22 11:45:14;;;;;;;13.73;5.73;;;;;;;;;;5057187;28;20474;-79
2023/06/22 11:47:43;;;;;;;8.97;5.90;;;;;;;;;;5058215;28;20487;-79
2023/06/22 11:50:11;;;;;;;14.27;6.10;;;;;;;;;;5057680;28;21021;-78
2023/06/22 11:52:38;;;;;;;10.87;6.10;;;;;;;;;;5058030;28;20505;-78
2023/06/22 11:55:06;;;;;;;11.70;5.83;;;;;;;;;;5057152;28;20475;-78
2023/06/22 11:57:35;;;;;;;16.03;5.97;;;;;;;;;;5056590;28;20498;-78
2023/06/22 12:00:06;;;;;;;9.20;5.97;;;;;;;;;;5056279;28;20475;-78
2023/06/22 12:02:33;;;;;;;9.90;5.10;;;;;;;;;;5057465;28;20444;-78
2023/06/22 12:05:04;;;;;;;20.47;5.43;;;;;;;;;;5056265;28;20480;-79
2023/06/22 12:07:31;;;;;;;8.43;6.63;;;;;;;;;;5056404;28;20456;-78
2023/06/22 12:09:59;;;;;;;14.67;6.30;;;;;;;;;;5055869;28;20464;-78
2023/06/22 12:12:26;;;;;;;10.70;6.03;;;;;;;;;;5056280;28;20448;-78
2023/06/22 12:14:53;;;;;;;9.20;6.10;;;;;;;;;;5055554;28;20454;-79
2023/06/22 12:17:20;;;;;;;10.13;5.57;;;;;;;;;;5055564;28;20567;-78
2023/06/22 12:19:49;;;;;;;11.17;5.53;;;;;;;;;;5055410;28;20484;-78
2023/06/22 12:22:18;;;;;;;9.60;5.97;;;;;;;;;;5056069;28;20456;-78
2023/06/22 12:24:45;;;;;;;11.90;5.43;;;;;;;;;;5055333;28;20448;-78
2023/06/22 12:27:16;;;;;;;14.87;5.50;;;;;;;;;;5055450;28;20902;-78
2023/06/22 12:29:43;;;;;;;9.87;5.40;;;;;;;;;;5055885;28;20472;-78
2023/06/22 12:32:12;;;;;;;16.00;6.07;;;;;;;;;;5055495;28;21047;-78
2023/06/22 12:34:40;;;;;;;17.03;6.40;;;;;;;;;;5056161;28;20461;-78
2023/06/22 12:37:07;;;;;;;17.13;5.77;;;;;;;;;;5055685;28;20484;-78
2023/06/22 12:39:36;;;;;;;8.03;5.43;;;;;;;;;;5055108;28;20457;-78
2023/06/22 12:42:03;;;;;;;11.30;5.47;;;;;;;;;;5055032;28;20503;-78
2023/06/22 12:44:31;;;;;;;11.37;5.53;;;;;;;;;;5055122;28;20839;-77
2023/06/22 12:46:58;;;;;;;12.60;5.67;;;;;;;;;;5054692;28;20441;-78
2023/06/22 12:49:25;;;;;;;13.27;5.60;;;;;;;;;;5053612;28;20460;-78
2023/06/22 12:51:53;;;;;;;10.53;5.93;;;;;;;;;;5054080;28;20571;-78
2023/06/22 12:54:20;;;;;;;9.77;6.10;;;;;;;;;;5055049;28;20876;-78
2023/06/22 12:56:49;;;;;;;8.97;5.27;;;;;;;;;;5054904;28;20468;-78
2023/06/22 12:59:17;;;;;;;10.47;6.57;;;;;;;;;;5055506;28;20475;-78
2023/06/22 13:01:45;;;;;;;18.13;6.67;;;;;;;;;;5054759;28;20908;-78
2023/06/22 13:04:14;;;;;;;12.40;5.60;;;;;;;;;;5055029;28;20469;-78
2023/06/22 13:06:41;;;;;;;18.67;6.40;;;;;;;;;;5054147;28;20449;-79
2023/06/22 13:09:08;;;;;;;8.40;5.10;;;;;;;;;;5054093;28;20444;-78
2023/06/22 13:11:35;;;;;;;11.03;5.87;;;;;;;;;;5053755;28;20506;-78
2023/06/22 13:14:04;;;;;;;11.60;5.40;;;;;;;;;;5054017;28;20471;-78
2023/06/22 13:16:31;;;;;;;12.13;5.93;;;;;;;;;;5053559;28;20490;-78
2023/06/22 13:18:58;;;;;;;7.17;4.87;;;;;;;;;;5053723;28;20493;-78
2023/06/22 13:21:25;;;;;;;16.83;6.40;;;;;;;;;;5053475;28;20468;-78
2023/06/22 13:23:52;;;;;;;14.03;5.20;;;;;;;;;;5053968;28;20445;-78
2023/06/22 13:26:20;;;;;;;13.13;5.40;;;;;;;;;;5053557;28;20440;-78
2023/06/22 13:28:47;;;;;;;6.93;6.20;;;;;;;;;;5053463;28;20455;-78
2023/06/22 13:31:15;;;;;;;14.03;5.60;;;;;;;;;;5053584;28;20502;-78
2023/06/22 13:33:44;;;;;;;10.67;5.07;;;;;;;;;;5053754;28;20823;-78
2023/06/22 13:36:11;;;;;;;12.50;5.73;;;;;;;;;;5053718;28;20467;-78
2023/06/22 13:38:38;;;;;;;13.33;5.80;;;;;;;;;;5052952;28;20488;-78
2023/06/22 13:41:06;;;;;;;7.50;6.07;;;;;;;;;;5053269;28;20476;-78
2023/06/22 13:43:33;;;;;;;12.17;6.27;;;;;;;;;;5054262;28;20445;-80
2023/06/22 13:46:00;;;;;;;14.20;6.20;;;;;;;;;;5055360;28;20463;-80
2023/06/22 13:48:28;;;;;;;11.00;6.13;;;;;;;;;;5055466;28;20460;-80
2023/06/22 13:50:55;;;;;;;12.17;5.93;;;;;;;;;;5055041;28;20477;-80
2023/06/22 13:53:22;;;;;;;18.20;6.57;;;;;;;;;;5054635;28;20463;-78
2023/06/22 13:55:50;;;;;;;11.10;5.67;;;;;;;;;;5053429;28;20544;-78
2023/06/22 13:58:19;;;;;;;16.00;5.47;;;;;;;;;;5053445;28;20496;-78
2023/06/22 14:00:47;;;;;;;15.67;6.50;;;;;;;;;;5052840;28;20564;-78
2023/06/22 14:03:15;;;;;;;15.40;6.47;;;;;;;;;;5053248;28;20459;-78
2023/06/22 14:05:44;;;;;;;20.07;7.13;;;;;;;;;;5053286;28;20487;-78
2023/06/22 14:08:11;;;;;;;8.97;5.37;;;;;;;;;;5053124;28;20539;-78
2023/06/22 14:10:38;;;;;;;14.47;5.83;;;;;;;;;;5052747;28;20839;-78
2023/06/22 14:13:06;;;;;;;11.13;5.83;;;;;;;;;;5055562;28;20457;-79
2023/06/22 14:15:33;;;;;;;14.10;5.70;;;;;;;;;;5056256;28;20460;-79
2023/06/22 14:18:01;;;;;;;11.77;5.70;;;;;;;;;;5056240;28;20484;-78
2023/06/22 14:20:28;;;;;;;12.80;6.20;;;;;;;;;;5056156;28;20472;-78
2023/06/22 14:22:56;;;;;;;9.90;5.37;;;;;;;;;;5055879;28;20483;-78
2023/06/22 14:25:23;;;;;;;13.53;5.93;;;;;;;;;;5056034;28;20452;-79
2023/06/22 14:27:51;;;;;;;13.40;6.37;;;;;;;;;;5056526;28;20532;-80
2023/06/22 14:30:18;;;;;;;9.50;6.10;;;;;;;;;;5055899;28;20473;-79
2023/06/22 14:32:45;;;;;;;11.73;5.30;;;;;;;;;;5055911;28;20479;-79
2023/06/22 14:35:13;;;;;;;8.03;5.30;;;;;;;;;;5055966;28;20448;-78
2023/06/22 14:37:40;;;;;;;7.93;5.67;;;;;;;;;;5056185;28;20481;-79
2023/06/22 14:40:09;;;;;;;11.37;5.93;;;;;;;;;;5055612;28;20484;-79